sensor_id;sensor_type;location;lat;lon;timestamp;P1;durP1;ratioP1;P2;durP2;ratioP2
18507;SDS011;9383;50.928;12.116;2022-07-22T00:00:05;4.30;;;3.90;;
18507;SDS011;9383;50.928;12.116;2022-07-22T00:02:33;5.85;;;4.20;;
18507;SDS011;9383;50.928;12.116;2022-07-22T00:05:00;5.22;;;3.92;;
18507;SDS011;9383;50.928;12.116;2022-07-22T00:07:26;5.07;;;4.03;;
18507;SDS011;9383;50.928;12.116;2022-07-22T00:09:53;4.07;;;3.53;;
18507;SDS011;9383;50.928;12.116;2022-07-22T00:12:19;5.35;;;3.80;;
18507;SDS011;9383;50.928;12.116;2022-07-22T00:14:45;5.72;;;3.72;;
18507;SDS011;9383;50.928;12.116;2022-07-22T00:17:11;4.00;;;3.60;;
18507;SDS011;9383;50.928;12.116;2022-07-22T00:19:37;4.05;;;3.72;;
18507;SDS011;9383;50.928;12.116;2022-07-22T00:22:03;5.72;;;3.90;;
18507;SDS011;9383;50.928;12.116;2022-07-22T00:24:29;4.88;;;4.38;;
18507;SDS011;9383;50.928;12.116;2022-07-22T00:26:56;25.17;;;5.97;;
18507;SDS011;9383;50.928;12.116;2022-07-22T00:29:22;10.60;;;4.45;;
18507;SDS011;9383;50.928;12.116;2022-07-22T00:31:48;11.85;;;4.70;;
18507;SDS011;9383;50.928;12.116;2022-07-22T00:34:14;16.02;;;5.43;;
18507;SDS011;9383;50.928;12.116;2022-07-22T00:36:40;11.93;;;5.03;;
18507;SDS011;9383;50.928;12.116;2022-07-22T00:39:06;4.95;;;4.18;;
18507;SDS011;9383;50.928;12.116;2022-07-22T00:41:32;4.80;;;3.80;;
18507;SDS011;9383;50.928;12.116;2022-07-22T00:43:59;6.90;;;4.30;;
18507;SDS011;9383;50.928;12.116;2022-07-22T00:46:31;4.72;;;4.32;;
18507;SDS011;9383;50.928;12.116;2022-07-22T00:48:58;6.45;;;4.20;;
18507;SDS011;9383;50.928;12.116;2022-07-22T00:51:26;4.78;;;3.92;;
18507;SDS011;9383;50.928;12.116;2022-07-22T00:53:55;6.18;;;4.90;;
18507;SDS011;9383;50.928;12.116;2022-07-22T00:56:22;6.90;;;4.75;;
18507;SDS011;9383;50.928;12.116;2022-07-22T00:58:51;6.38;;;4.63;;
18507;SDS011;9383;50.928;12.116;2022-07-22T01:01:21;6.63;;;4.25;;
18507;SDS011;9383;50.928;12.116;2022-07-22T01:03:47;6.40;;;4.47;;
18507;SDS011;9383;50.928;12.116;2022-07-22T01:06:13;9.00;;;4.80;;
18507;SDS011;9383;50.928;12.116;2022-07-22T01:08:39;5.18;;;4.57;;
18507;SDS011;9383;50.928;12.116;2022-07-22T01:11:10;5.05;;;4.65;;
18507;SDS011;9383;50.928;12.116;2022-07-22T01:13:42;5.60;;;5.10;;
18507;SDS011;9383;50.928;12.116;2022-07-22T01:16:10;5.00;;;4.50;;
18507;SDS011;9383;50.928;12.116;2022-07-22T01:18:38;4.88;;;4.35;;
18507;SDS011;9383;50.928;12.116;2022-07-22T01:21:05;5.15;;;4.70;;
18507;SDS011;9383;50.928;12.116;2022-07-22T01:23:33;5.25;;;4.85;;
18507;SDS011;9383;50.928;12.116;2022-07-22T01:26:00;9.38;;;4.82;;
18507;SDS011;9383;50.928;12.116;2022-07-22T01:28:28;5.55;;;4.70;;
18507;SDS011;9383;50.928;12.116;2022-07-22T01:30:54;5.43;;;4.93;;
18507;SDS011;9383;50.928;12.116;2022-07-22T01:33:21;5.13;;;4.72;;
18507;SDS011;9383;50.928;12.116;2022-07-22T01:35:49;7.07;;;4.95;;
18507;SDS011;9383;50.928;12.116;2022-07-22T01:38:16;5.57;;;4.68;;
18507;SDS011;9383;50.928;12.116;2022-07-22T01:40:45;11.48;;;5.75;;
18507;SDS011;9383;50.928;12.116;2022-07-22T01:43:13;7.07;;;5.10;;
18507;SDS011;9383;50.928;12.116;2022-07-22T01:45:43;6.15;;;5.05;;
18507;SDS011;9383;50.928;12.116;2022-07-22T01:48:10;4.68;;;4.38;;
18507;SDS011;9383;50.928;12.116;2022-07-22T01:50:38;5.40;;;4.80;;
18507;SDS011;9383;50.928;12.116;2022-07-22T01:53:06;5.18;;;4.65;;
18507;SDS011;9383;50.928;12.116;2022-07-22T01:55:32;5.47;;;4.97;;
18507;SDS011;9383;50.928;12.116;2022-07-22T01:57:58;5.57;;;4.60;;
18507;SDS011;9383;50.928;12.116;2022-07-22T02:00:25;5.10;;;4.70;;
18507;SDS011;9383;50.928;12.116;2022-07-22T02:02:51;7.18;;;5.30;;
18507;SDS011;9383;50.928;12.116;2022-07-22T02:05:17;5.45;;;5.03;;
18507;SDS011;9383;50.928;12.116;2022-07-22T02:07:43;5.65;;;5.15;;
18507;SDS011;9383;50.928;12.116;2022-07-22T02:10:09;5.45;;;4.95;;
18507;SDS011;9383;50.928;12.116;2022-07-22T02:12:36;5.43;;;5.03;;
18507;SDS011;9383;50.928;12.116;2022-07-22T02:15:02;7.75;;;4.95;;
18507;SDS011;9383;50.928;12.116;2022-07-22T02:17:28;5.45;;;4.95;;
18507;SDS011;9383;50.928;12.116;2022-07-22T02:19:54;5.25;;;4.75;;
18507;SDS011;9383;50.928;12.116;2022-07-22T02:22:21;5.93;;;4.93;;
18507;SDS011;9383;50.928;12.116;2022-07-22T02:24:47;5.38;;;4.90;;
18507;SDS011;9383;50.928;12.116;2022-07-22T02:27:13;5.30;;;4.80;;
18507;SDS011;9383;50.928;12.116;2022-07-22T02:29:39;4.97;;;4.47;;
18507;SDS011;9383;50.928;12.116;2022-07-22T02:32:05;5.75;;;5.25;;
18507;SDS011;9383;50.928;12.116;2022-07-22T02:34:32;6.30;;;5.38;;
18507;SDS011;9383;50.928;12.116;2022-07-22T02:36:58;6.05;;;5.55;;
18507;SDS011;9383;50.928;12.116;2022-07-22T02:39:24;6.05;;;5.55;;
18507;SDS011;9383;50.928;12.116;2022-07-22T02:41:50;6.57;;;5.68;;
18507;SDS011;9383;50.928;12.116;2022-07-22T02:44:16;7.32;;;5.60;;
18507;SDS011;9383;50.928;12.116;2022-07-22T02:46:42;5.85;;;5.30;;
18507;SDS011;9383;50.928;12.116;2022-07-22T02:49:09;5.95;;;5.38;;
18507;SDS011;9383;50.928;12.116;2022-07-22T02:51:35;5.93;;;5.40;;
18507;SDS011;9383;50.928;12.116;2022-07-22T02:54:01;7.10;;;5.20;;
18507;SDS011;9383;50.928;12.116;2022-07-22T02:56:27;6.28;;;5.78;;
18507;SDS011;9383;50.928;12.116;2022-07-22T02:58:53;6.30;;;5.75;;
18507;SDS011;9383;50.928;12.116;2022-07-22T03:01:20;7.45;;;5.78;;
18507;SDS011;9383;50.928;12.116;2022-07-22T03:03:46;6.25;;;5.72;;
18507;SDS011;9383;50.928;12.116;2022-07-22T03:06:12;6.57;;;5.88;;
18507;SDS011;9383;50.928;12.116;2022-07-22T03:08:38;7.20;;;6.03;;
18507;SDS011;9383;50.928;12.116;2022-07-22T03:11:04;6.15;;;5.65;;
18507;SDS011;9383;50.928;12.116;2022-07-22T03:13:31;9.35;;;6.53;;
18507;SDS011;9383;50.928;12.116;2022-07-22T03:15:57;6.70;;;6.10;;
18507;SDS011;9383;50.928;12.116;2022-07-22T03:18:23;7.85;;;6.00;;
18507;SDS011;9383;50.928;12.116;2022-07-22T03:20:49;6.75;;;6.15;;
18507;SDS011;9383;50.928;12.116;2022-07-22T03:23:16;6.00;;;5.53;;
18507;SDS011;9383;50.928;12.116;2022-07-22T03:25:42;6.38;;;5.80;;
18507;SDS011;9383;50.928;12.116;2022-07-22T03:28:08;6.40;;;5.90;;
18507;SDS011;9383;50.928;12.116;2022-07-22T03:30:34;6.78;;;6.15;;
18507;SDS011;9383;50.928;12.116;2022-07-22T03:33:01;6.78;;;6.15;;
18507;SDS011;9383;50.928;12.116;2022-07-22T03:35:27;8.13;;;6.03;;
18507;SDS011;9383;50.928;12.116;2022-07-22T03:37:53;6.90;;;6.28;;
18507;SDS011;9383;50.928;12.116;2022-07-22T03:40:19;7.18;;;6.57;;
18507;SDS011;9383;50.928;12.116;2022-07-22T03:42:45;6.28;;;5.75;;
18507;SDS011;9383;50.928;12.116;2022-07-22T03:45:11;6.45;;;5.85;;
18507;SDS011;9383;50.928;12.116;2022-07-22T03:47:37;6.85;;;6.18;;
18507;SDS011;9383;50.928;12.116;2022-07-22T03:50:04;6.13;;;5.63;;
18507;SDS011;9383;50.928;12.116;2022-07-22T03:52:30;7.75;;;6.22;;
18507;SDS011;9383;50.928;12.116;2022-07-22T03:54:57;6.32;;;5.82;;
18507;SDS011;9383;50.928;12.116;2022-07-22T03:57:23;7.53;;;6.13;;
18507;SDS011;9383;50.928;12.116;2022-07-22T03:59:49;7.35;;;5.95;;
18507;SDS011;9383;50.928;12.116;2022-07-22T04:02:15;8.88;;;6.38;;
18507;SDS011;9383;50.928;12.116;2022-07-22T04:04:41;6.90;;;6.30;;
18507;SDS011;9383;50.928;12.116;2022-07-22T04:07:07;7.25;;;6.05;;
18507;SDS011;9383;50.928;12.116;2022-07-22T04:09:34;8.48;;;6.30;;
18507;SDS011;9383;50.928;12.116;2022-07-22T04:12:00;6.72;;;6.05;;
18507;SDS011;9383;50.928;12.116;2022-07-22T04:14:26;7.25;;;6.50;;
18507;SDS011;9383;50.928;12.116;2022-07-22T04:16:52;6.68;;;6.18;;
18507;SDS011;9383;50.928;12.116;2022-07-22T04:19:19;6.72;;;6.10;;
18507;SDS011;9383;50.928;12.116;2022-07-22T04:21:45;6.90;;;6.30;;
18507;SDS011;9383;50.928;12.116;2022-07-22T04:24:11;6.28;;;5.68;;
18507;SDS011;9383;50.928;12.116;2022-07-22T04:26:37;6.95;;;6.18;;
18507;SDS011;9383;50.928;12.116;2022-07-22T04:29:03;6.57;;;5.75;;
18507;SDS011;9383;50.928;12.116;2022-07-22T04:31:30;6.68;;;6.18;;
18507;SDS011;9383;50.928;12.116;2022-07-22T04:33:56;6.80;;;6.20;;
18507;SDS011;9383;50.928;12.116;2022-07-22T04:36:23;5.93;;;5.25;;
18507;SDS011;9383;50.928;12.116;2022-07-22T04:38:50;6.60;;;6.00;;
18507;SDS011;9383;50.928;12.116;2022-07-22T04:41:16;6.97;;;6.40;;
18507;SDS011;9383;50.928;12.116;2022-07-22T04:43:42;7.63;;;6.07;;
18507;SDS011;9383;50.928;12.116;2022-07-22T04:46:08;6.90;;;6.22;;
18507;SDS011;9383;50.928;12.116;2022-07-22T04:48:34;6.93;;;6.22;;
18507;SDS011;9383;50.928;12.116;2022-07-22T04:51:01;7.28;;;6.57;;
18507;SDS011;9383;50.928;12.116;2022-07-22T04:53:29;6.40;;;5.80;;
18507;SDS011;9383;50.928;12.116;2022-07-22T04:55:55;6.93;;;6.32;;
18507;SDS011;9383;50.928;12.116;2022-07-22T04:58:21;6.15;;;5.65;;
18507;SDS011;9383;50.928;12.116;2022-07-22T05:00:47;6.85;;;6.13;;
18507;SDS011;9383;50.928;12.116;2022-07-22T05:03:13;6.47;;;5.88;;
18507;SDS011;9383;50.928;12.116;2022-07-22T05:05:39;7.15;;;6.45;;
18507;SDS011;9383;50.928;12.116;2022-07-22T05:08:05;8.55;;;7.65;;
18507;SDS011;9383;50.928;12.116;2022-07-22T05:10:31;8.15;;;7.40;;
18507;SDS011;9383;50.928;12.116;2022-07-22T05:12:58;7.85;;;7.15;;
18507;SDS011;9383;50.928;12.116;2022-07-22T05:15:24;7.88;;;7.07;;
18507;SDS011;9383;50.928;12.116;2022-07-22T05:17:51;8.80;;;7.00;;
18507;SDS011;9383;50.928;12.116;2022-07-22T05:20:17;9.00;;;7.50;;
18507;SDS011;9383;50.928;12.116;2022-07-22T05:22:44;7.95;;;7.25;;
18507;SDS011;9383;50.928;12.116;2022-07-22T05:25:11;7.75;;;7.03;;
18507;SDS011;9383;50.928;12.116;2022-07-22T05:27:37;8.18;;;7.50;;
18507;SDS011;9383;50.928;12.116;2022-07-22T05:30:03;7.40;;;6.80;;
18507;SDS011;9383;50.928;12.116;2022-07-22T05:32:30;7.57;;;6.75;;
18507;SDS011;9383;50.928;12.116;2022-07-22T05:34:56;9.38;;;7.40;;
18507;SDS011;9383;50.928;12.116;2022-07-22T05:37:22;7.35;;;6.65;;
18507;SDS011;9383;50.928;12.116;2022-07-22T05:39:48;7.30;;;6.60;;
18507;SDS011;9383;50.928;12.116;2022-07-22T05:42:14;9.00;;;7.85;;
18507;SDS011;9383;50.928;12.116;2022-07-22T05:44:40;7.57;;;6.85;;
18507;SDS011;9383;50.928;12.116;2022-07-22T05:47:06;8.10;;;7.05;;
18507;SDS011;9383;50.928;12.116;2022-07-22T05:49:32;10.52;;;7.05;;
18507;SDS011;9383;50.928;12.116;2022-07-22T05:51:58;7.38;;;6.68;;
18507;SDS011;9383;50.928;12.116;2022-07-22T05:54:26;7.20;;;6.50;;
18507;SDS011;9383;50.928;12.116;2022-07-22T05:56:53;8.45;;;6.00;;
18507;SDS011;9383;50.928;12.116;2022-07-22T05:59:19;7.72;;;5.78;;
18507;SDS011;9383;50.928;12.116;2022-07-22T06:01:45;7.28;;;5.82;;
18507;SDS011;9383;50.928;12.116;2022-07-22T06:04:11;7.07;;;5.32;;
18507;SDS011;9383;50.928;12.116;2022-07-22T06:06:37;6.00;;;5.50;;
18507;SDS011;9383;50.928;12.116;2022-07-22T06:09:05;7.95;;;6.05;;
18507;SDS011;9383;50.928;12.116;2022-07-22T06:11:31;13.88;;;5.65;;
18507;SDS011;9383;50.928;12.116;2022-07-22T06:13:57;5.22;;;4.70;;
18507;SDS011;9383;50.928;12.116;2022-07-22T06:16:23;8.65;;;4.90;;
18507;SDS011;9383;50.928;12.116;2022-07-22T06:18:49;7.20;;;4.32;;
18507;SDS011;9383;50.928;12.116;2022-07-22T06:21:15;4.05;;;3.75;;
18507;SDS011;9383;50.928;12.116;2022-07-22T06:23:41;4.72;;;3.83;;
18507;SDS011;9383;50.928;12.116;2022-07-22T06:26:07;3.80;;;3.42;;
18507;SDS011;9383;50.928;12.116;2022-07-22T06:28:33;3.15;;;2.95;;
18507;SDS011;9383;50.928;12.116;2022-07-22T06:30:59;3.85;;;3.42;;
18507;SDS011;9383;50.928;12.116;2022-07-22T06:33:25;3.67;;;3.28;;
18507;SDS011;9383;50.928;12.116;2022-07-22T06:35:52;3.35;;;3.05;;
18507;SDS011;9383;50.928;12.116;2022-07-22T06:38:18;3.42;;;3.10;;
18507;SDS011;9383;50.928;12.116;2022-07-22T06:40:44;3.13;;;2.78;;
18507;SDS011;9383;50.928;12.116;2022-07-22T06:43:10;7.15;;;3.60;;
18507;SDS011;9383;50.928;12.116;2022-07-22T06:45:36;3.40;;;3.20;;
18507;SDS011;9383;50.928;12.116;2022-07-22T06:48:04;2.80;;;2.60;;
18507;SDS011;9383;50.928;12.116;2022-07-22T06:50:30;3.08;;;2.88;;
18507;SDS011;9383;50.928;12.116;2022-07-22T06:52:56;3.42;;;3.13;;
18507;SDS011;9383;50.928;12.116;2022-07-22T06:55:22;5.47;;;3.50;;
18507;SDS011;9383;50.928;12.116;2022-07-22T06:57:49;3.30;;;3.00;;
18507;SDS011;9383;50.928;12.116;2022-07-22T07:00:15;3.50;;;3.22;;
18507;SDS011;9383;50.928;12.116;2022-07-22T07:02:42;2.83;;;2.63;;
18507;SDS011;9383;50.928;12.116;2022-07-22T07:05:08;3.35;;;3.05;;
18507;SDS011;9383;50.928;12.116;2022-07-22T07:07:36;4.03;;;3.28;;
18507;SDS011;9383;50.928;12.116;2022-07-22T07:10:02;3.38;;;3.05;;
18507;SDS011;9383;50.928;12.116;2022-07-22T07:12:29;3.95;;;3.65;;
18507;SDS011;9383;50.928;12.116;2022-07-22T07:14:55;3.08;;;2.88;;
18507;SDS011;9383;50.928;12.116;2022-07-22T07:17:21;6.22;;;3.15;;
18507;SDS011;9383;50.928;12.116;2022-07-22T07:19:49;3.22;;;3.00;;
18507;SDS011;9383;50.928;12.116;2022-07-22T07:22:15;5.28;;;3.70;;
18507;SDS011;9383;50.928;12.116;2022-07-22T07:24:41;3.30;;;3.00;;
18507;SDS011;9383;50.928;12.116;2022-07-22T07:27:07;3.38;;;3.08;;
18507;SDS011;9383;50.928;12.116;2022-07-22T07:29:33;3.33;;;3.13;;
18507;SDS011;9383;50.928;12.116;2022-07-22T07:31:59;3.08;;;2.80;;
18507;SDS011;9383;50.928;12.116;2022-07-22T07:34:26;2.90;;;2.70;;
18507;SDS011;9383;50.928;12.116;2022-07-22T07:36:52;2.90;;;2.70;;
18507;SDS011;9383;50.928;12.116;2022-07-22T07:39:18;2.53;;;2.33;;
18507;SDS011;9383;50.928;12.116;2022-07-22T07:41:44;3.05;;;2.72;;
18507;SDS011;9383;50.928;12.116;2022-07-22T07:44:10;3.55;;;3.00;;
18507;SDS011;9383;50.928;12.116;2022-07-22T07:46:36;3.53;;;2.55;;
18507;SDS011;9383;50.928;12.116;2022-07-22T07:49:02;3.72;;;3.40;;
18507;SDS011;9383;50.928;12.116;2022-07-22T07:51:28;4.80;;;2.88;;
18507;SDS011;9383;50.928;12.116;2022-07-22T07:53:54;3.13;;;2.63;;
18507;SDS011;9383;50.928;12.116;2022-07-22T07:56:20;3.97;;;2.92;;
18507;SDS011;9383;50.928;12.116;2022-07-22T07:58:47;6.00;;;3.47;;
18507;SDS011;9383;50.928;12.116;2022-07-22T08:01:13;3.97;;;3.67;;
18507;SDS011;9383;50.928;12.116;2022-07-22T08:03:39;4.35;;;3.38;;
18507;SDS011;9383;50.928;12.116;2022-07-22T08:06:05;3.67;;;3.08;;
18507;SDS011;9383;50.928;12.116;2022-07-22T08:08:31;4.05;;;3.60;;
18507;SDS011;9383;50.928;12.116;2022-07-22T08:10:59;4.43;;;3.22;;
18507;SDS011;9383;50.928;12.116;2022-07-22T08:13:25;3.35;;;3.15;;
18507;SDS011;9383;50.928;12.116;2022-07-22T08:15:51;4.68;;;2.90;;
18507;SDS011;9383;50.928;12.116;2022-07-22T08:18:17;3.28;;;3.08;;
18507;SDS011;9383;50.928;12.116;2022-07-22T08:20:43;3.42;;;3.20;;
18507;SDS011;9383;50.928;12.116;2022-07-22T08:23:10;3.50;;;3.20;;
18507;SDS011;9383;50.928;12.116;2022-07-22T08:25:36;3.25;;;2.95;;
18507;SDS011;9383;50.928;12.116;2022-07-22T08:28:02;3.28;;;2.97;;
18507;SDS011;9383;50.928;12.116;2022-07-22T08:30:28;4.03;;;3.30;;
18507;SDS011;9383;50.928;12.116;2022-07-22T08:32:55;29.45;;;4.97;;
18507;SDS011;9383;50.928;12.116;2022-07-22T08:35:22;8.98;;;3.40;;
18507;SDS011;9383;50.928;12.116;2022-07-22T08:37:48;10.55;;;3.75;;
18507;SDS011;9383;50.928;12.116;2022-07-22T08:40:15;3.85;;;3.50;;
18507;SDS011;9383;50.928;12.116;2022-07-22T08:42:43;3.25;;;3.05;;
18507;SDS011;9383;50.928;12.116;2022-07-22T08:45:11;5.90;;;3.03;;
18507;SDS011;9383;50.928;12.116;2022-07-22T08:47:38;3.40;;;3.17;;
18507;SDS011;9383;50.928;12.116;2022-07-22T08:50:04;3.40;;;3.10;;
18507;SDS011;9383;50.928;12.116;2022-07-22T08:52:32;3.67;;;3.22;;
18507;SDS011;9383;50.928;12.116;2022-07-22T08:54:58;3.47;;;3.28;;
18507;SDS011;9383;50.928;12.116;2022-07-22T08:57:27;6.20;;;3.50;;
18507;SDS011;9383;50.928;12.116;2022-07-22T08:59:55;5.25;;;2.80;;
18507;SDS011;9383;50.928;12.116;2022-07-22T09:02:24;6.90;;;2.72;;
18507;SDS011;9383;50.928;12.116;2022-07-22T09:04:57;12.70;;;3.70;;
18507;SDS011;9383;50.928;12.116;2022-07-22T09:07:27;3.53;;;2.97;;
18507;SDS011;9383;50.928;12.116;2022-07-22T09:10:00;4.10;;;2.78;;
18507;SDS011;9383;50.928;12.116;2022-07-22T09:12:28;7.38;;;3.42;;
18507;SDS011;9383;50.928;12.116;2022-07-22T09:14:56;3.75;;;3.03;;
18507;SDS011;9383;50.928;12.116;2022-07-22T09:17:26;3.00;;;2.75;;
18507;SDS011;9383;50.928;12.116;2022-07-22T09:19:59;3.38;;;2.63;;
18507;SDS011;9383;50.928;12.116;2022-07-22T09:22:39;2.97;;;2.50;;
18507;SDS011;9383;50.928;12.116;2022-07-22T09:25:30;4.22;;;2.53;;
18507;SDS011;9383;50.928;12.116;2022-07-22T09:30:31;2.70;;;2.50;;
18507;SDS011;9383;50.928;12.116;2022-07-22T09:33:03;5.97;;;2.90;;
18507;SDS011;9383;50.928;12.116;2022-07-22T09:35:30;2.20;;;2.10;;
18507;SDS011;9383;50.928;12.116;2022-07-22T09:37:58;2.88;;;2.67;;
18507;SDS011;9383;50.928;12.116;2022-07-22T09:40:29;2.42;;;2.30;;
18507;SDS011;9383;50.928;12.116;2022-07-22T09:43:00;2.70;;;2.60;;
18507;SDS011;9383;50.928;12.116;2022-07-22T09:45:30;62.60;;;7.05;;
18507;SDS011;9383;50.928;12.116;2022-07-22T09:48:02;2.65;;;2.45;;
18507;SDS011;9383;50.928;12.116;2022-07-22T09:50:33;3.00;;;2.60;;
18507;SDS011;9383;50.928;12.116;2022-07-22T09:53:02;2.58;;;2.22;;
18507;SDS011;9383;50.928;12.116;2022-07-22T09:55:28;2.47;;;2.35;;
18507;SDS011;9383;50.928;12.116;2022-07-22T09:57:56;2.88;;;2.67;;
18507;SDS011;9383;50.928;12.116;2022-07-22T10:00:24;2.60;;;2.40;;
18507;SDS011;9383;50.928;12.116;2022-07-22T10:02:55;2.78;;;2.60;;
18507;SDS011;9383;50.928;12.116;2022-07-22T10:05:30;3.50;;;2.50;;
18507;SDS011;9383;50.928;12.116;2022-07-22T10:08:00;2.17;;;2.00;;
18507;SDS011;9383;50.928;12.116;2022-07-22T10:10:28;2.78;;;2.40;;
18507;SDS011;9383;50.928;12.116;2022-07-22T10:12:57;3.75;;;2.65;;
18507;SDS011;9383;50.928;12.116;2022-07-22T10:15:29;3.45;;;2.40;;
18507;SDS011;9383;50.928;12.116;2022-07-22T10:18:17;2.30;;;2.17;;
18507;SDS011;9383;50.928;12.116;2022-07-22T10:20:44;2.40;;;2.20;;
18507;SDS011;9383;50.928;12.116;2022-07-22T10:23:12;2.30;;;2.20;;
18507;SDS011;9383;50.928;12.116;2022-07-22T10:25:49;2.50;;;2.30;;
18507;SDS011;9383;50.928;12.116;2022-07-22T10:28:24;3.10;;;2.35;;
18507;SDS011;9383;50.928;12.116;2022-07-22T10:33:51;2.30;;;2.10;;
18507;SDS011;9383;50.928;12.116;2022-07-22T10:36:35;2.38;;;2.28;;
18507;SDS011;9383;50.928;12.116;2022-07-22T10:39:08;5.03;;;2.60;;
18507;SDS011;9383;50.928;12.116;2022-07-22T10:41:42;3.75;;;2.10;;
18507;SDS011;9383;50.928;12.116;2022-07-22T10:44:11;4.93;;;2.00;;
18507;SDS011;9383;50.928;12.116;2022-07-22T10:46:50;12.52;;;3.15;;
18507;SDS011;9383;50.928;12.116;2022-07-22T10:49:20;2.25;;;2.10;;
18507;SDS011;9383;50.928;12.116;2022-07-22T10:54:33;2.33;;;2.15;;
18507;SDS011;9383;50.928;12.116;2022-07-22T10:57:29;1.95;;;1.85;;
18507;SDS011;9383;50.928;12.116;2022-07-22T10:59:57;2.20;;;2.05;;
18507;SDS011;9383;50.928;12.116;2022-07-22T11:02:23;3.25;;;2.00;;
18507;SDS011;9383;50.928;12.116;2022-07-22T11:04:52;2.45;;;2.22;;
18507;SDS011;9383;50.928;12.116;2022-07-22T11:07:20;2.20;;;2.10;;
18507;SDS011;9383;50.928;12.116;2022-07-22T11:09:46;2.83;;;2.63;;
18507;SDS011;9383;50.928;12.116;2022-07-22T11:12:12;2.50;;;2.40;;
18507;SDS011;9383;50.928;12.116;2022-07-22T11:14:39;2.10;;;2.00;;
18507;SDS011;9383;50.928;12.116;2022-07-22T11:17:09;2.20;;;2.10;;
18507;SDS011;9383;50.928;12.116;2022-07-22T11:19:39;2.40;;;2.20;;
18507;SDS011;9383;50.928;12.116;2022-07-22T11:22:07;2.30;;;2.10;;
18507;SDS011;9383;50.928;12.116;2022-07-22T11:24:36;2.92;;;2.00;;
18507;SDS011;9383;50.928;12.116;2022-07-22T11:27:08;2.13;;;1.92;;
18507;SDS011;9383;50.928;12.116;2022-07-22T11:29:47;2.10;;;2.00;;
18507;SDS011;9383;50.928;12.116;2022-07-22T11:32:16;2.30;;;2.10;;
18507;SDS011;9383;50.928;12.116;2022-07-22T11:34:43;2.47;;;2.38;;
18507;SDS011;9383;50.928;12.116;2022-07-22T11:37:18;2.67;;;2.33;;
18507;SDS011;9383;50.928;12.116;2022-07-22T11:39:50;4.03;;;2.55;;
18507;SDS011;9383;50.928;12.116;2022-07-22T11:42:24;2.47;;;2.38;;
18507;SDS011;9383;50.928;12.116;2022-07-22T11:44:51;2.63;;;2.42;;
18507;SDS011;9383;50.928;12.116;2022-07-22T11:47:17;2.60;;;2.22;;
18507;SDS011;9383;50.928;12.116;2022-07-22T11:49:45;2.10;;;2.00;;
18507;SDS011;9383;50.928;12.116;2022-07-22T11:52:15;3.70;;;2.70;;
18507;SDS011;9383;50.928;12.116;2022-07-22T11:54:42;4.13;;;2.40;;
18507;SDS011;9383;50.928;12.116;2022-07-22T11:57:11;3.13;;;2.28;;
18507;SDS011;9383;50.928;12.116;2022-07-22T11:59:39;2.33;;;2.20;;
18507;SDS011;9383;50.928;12.116;2022-07-22T12:02:05;3.17;;;2.90;;
18507;SDS011;9383;50.928;12.116;2022-07-22T12:04:34;2.65;;;2.50;;
18507;SDS011;9383;50.928;12.116;2022-07-22T12:07:02;4.47;;;3.00;;
18507;SDS011;9383;50.928;12.116;2022-07-22T12:09:30;3.05;;;2.70;;
18507;SDS011;9383;50.928;12.116;2022-07-22T12:12:03;2.58;;;2.45;;
18507;SDS011;9383;50.928;12.116;2022-07-22T12:14:31;3.80;;;3.00;;
18507;SDS011;9383;50.928;12.116;2022-07-22T12:17:06;2.83;;;2.63;;
18507;SDS011;9383;50.928;12.116;2022-07-22T12:19:37;4.32;;;2.67;;
18507;SDS011;9383;50.928;12.116;2022-07-22T12:22:07;2.55;;;2.35;;
18507;SDS011;9383;50.928;12.116;2022-07-22T12:24:44;3.10;;;2.42;;
18507;SDS011;9383;50.928;12.116;2022-07-22T12:27:22;2.80;;;2.60;;
18507;SDS011;9383;50.928;12.116;2022-07-22T12:29:48;8.57;;;2.75;;
18507;SDS011;9383;50.928;12.116;2022-07-22T12:34:47;5.60;;;2.95;;
18507;SDS011;9383;50.928;12.116;2022-07-22T12:37:24;2.75;;;2.55;;
18507;SDS011;9383;50.928;12.116;2022-07-22T12:42:47;27.42;;;5.18;;
18507;SDS011;9383;50.928;12.116;2022-07-22T12:45:31;3.58;;;2.85;;
18507;SDS011;9383;50.928;12.116;2022-07-22T12:50:33;2.90;;;2.70;;
18507;SDS011;9383;50.928;12.116;2022-07-22T12:53:02;7.45;;;3.10;;
18507;SDS011;9383;50.928;12.116;2022-07-22T12:55:42;2.60;;;2.50;;
18507;SDS011;9383;50.928;12.116;2022-07-22T12:58:32;2.90;;;2.70;;
18507;SDS011;9383;50.928;12.116;2022-07-22T13:00:59;3.42;;;3.13;;
18507;SDS011;9383;50.928;12.116;2022-07-22T13:03:27;2.85;;;2.63;;
18507;SDS011;9383;50.928;12.116;2022-07-22T13:05:56;3.28;;;2.97;;
18507;SDS011;9383;50.928;12.116;2022-07-22T13:08:26;3.05;;;2.85;;
18507;SDS011;9383;50.928;12.116;2022-07-22T13:10:54;3.08;;;2.72;;
18507;SDS011;9383;50.928;12.116;2022-07-22T13:13:20;3.20;;;2.65;;
18507;SDS011;9383;50.928;12.116;2022-07-22T13:15:53;3.15;;;2.80;;
18507;SDS011;9383;50.928;12.116;2022-07-22T13:18:20;2.72;;;2.53;;
18507;SDS011;9383;50.928;12.116;2022-07-22T13:20:47;3.00;;;2.80;;
18507;SDS011;9383;50.928;12.116;2022-07-22T13:23:13;2.78;;;2.58;;
18507;SDS011;9383;50.928;12.116;2022-07-22T13:25:39;2.97;;;2.78;;
18507;SDS011;9383;50.928;12.116;2022-07-22T13:28:06;3.22;;;2.47;;
18507;SDS011;9383;50.928;12.116;2022-07-22T13:30:32;3.22;;;2.90;;
18507;SDS011;9383;50.928;12.116;2022-07-22T13:32:58;3.17;;;2.97;;
18507;SDS011;9383;50.928;12.116;2022-07-22T13:35:24;7.43;;;3.28;;
18507;SDS011;9383;50.928;12.116;2022-07-22T13:37:50;4.05;;;3.00;;
18507;SDS011;9383;50.928;12.116;2022-07-22T13:40:18;3.05;;;2.80;;
18507;SDS011;9383;50.928;12.116;2022-07-22T13:42:44;5.50;;;2.95;;
18507;SDS011;9383;50.928;12.116;2022-07-22T13:45:10;12.48;;;3.20;;
18507;SDS011;9383;50.928;12.116;2022-07-22T13:47:38;3.08;;;2.88;;
18507;SDS011;9383;50.928;12.116;2022-07-22T13:50:06;3.78;;;3.15;;
18507;SDS011;9383;50.928;12.116;2022-07-22T13:52:33;3.75;;;2.80;;
18507;SDS011;9383;50.928;12.116;2022-07-22T13:54:59;3.45;;;2.95;;
18507;SDS011;9383;50.928;12.116;2022-07-22T13:57:25;34.05;;;5.90;;
18507;SDS011;9383;50.928;12.116;2022-07-22T13:59:52;6.72;;;3.50;;
18507;SDS011;9383;50.928;12.116;2022-07-22T14:02:18;3.17;;;2.80;;
18507;SDS011;9383;50.928;12.116;2022-07-22T14:04:44;3.05;;;2.80;;
18507;SDS011;9383;50.928;12.116;2022-07-22T14:07:10;3.50;;;3.20;;
18507;SDS011;9383;50.928;12.116;2022-07-22T14:09:37;15.80;;;4.45;;
18507;SDS011;9383;50.928;12.116;2022-07-22T14:12:03;5.32;;;2.80;;
18507;SDS011;9383;50.928;12.116;2022-07-22T14:14:29;33.33;;;5.47;;
18507;SDS011;9383;50.928;12.116;2022-07-22T14:16:55;3.65;;;2.85;;
18507;SDS011;9383;50.928;12.116;2022-07-22T14:19:22;3.13;;;2.80;;
18507;SDS011;9383;50.928;12.116;2022-07-22T14:21:48;3.15;;;2.85;;
18507;SDS011;9383;50.928;12.116;2022-07-22T14:24:14;3.35;;;2.88;;
18507;SDS011;9383;50.928;12.116;2022-07-22T14:26:40;7.38;;;3.33;;
18507;SDS011;9383;50.928;12.116;2022-07-22T14:29:08;4.13;;;2.83;;
18507;SDS011;9383;50.928;12.116;2022-07-22T14:31:34;3.25;;;2.80;;
18507;SDS011;9383;50.928;12.116;2022-07-22T14:34:00;3.00;;;2.80;;
18507;SDS011;9383;50.928;12.116;2022-07-22T14:36:27;19.90;;;17.92;;
18507;SDS011;9383;50.928;12.116;2022-07-22T14:38:53;23.38;;;6.93;;
18507;SDS011;9383;50.928;12.116;2022-07-22T14:41:19;72.80;;;9.38;;
18507;SDS011;9383;50.928;12.116;2022-07-22T14:43:46;5.15;;;3.65;;
18507;SDS011;9383;50.928;12.116;2022-07-22T14:46:12;4.40;;;3.35;;
18507;SDS011;9383;50.928;12.116;2022-07-22T14:48:38;4.68;;;2.72;;
18507;SDS011;9383;50.928;12.116;2022-07-22T14:51:06;3.05;;;2.42;;
18507;SDS011;9383;50.928;12.116;2022-07-22T14:53:32;7.03;;;3.38;;
18507;SDS011;9383;50.928;12.116;2022-07-22T14:55:59;4.50;;;3.05;;
18507;SDS011;9383;50.928;12.116;2022-07-22T14:58:26;2.97;;;2.70;;
18507;SDS011;9383;50.928;12.116;2022-07-22T15:00:52;3.20;;;2.88;;
18507;SDS011;9383;50.928;12.116;2022-07-22T15:03:19;5.93;;;3.33;;
18507;SDS011;9383;50.928;12.116;2022-07-22T15:05:45;3.30;;;3.00;;